LOWG/GRZ METAR and TAF weather

Enter ICAO airport designator
Station Type Date Time Source
LOWG METAR 2018/12/15 04:20 UTC NOAA

LOWG 150420Z AUTO 17002KT 4600 -SN FEW050 BKN070 M03/M04 Q1020


Station Type Date Time Source
LOWG Decoded METAR 2018/12/15 04:20 UTC NOAA

Graz-Thalerhof-Flughafen, Austria (LOWG) 47-00N 015-26E 347M
Dec 14, 2018 - 11:20 PM EST / 2018.12.15 0420 UTC
Wind: from the S (170 degrees) at 2 MPH (2 KT):0
Visibility: 2 mile(s):0
Sky conditions: mostly cloudy
Weather: light snow
Temperature: 26 F (-3 C)
Dew Point: 24 F (-4 C)
Relative Humidity: 92%
Pressure (altimeter): 30.12 in. Hg (1020 hPa)
ob: LOWG 150420Z AUTO 17002KT 4600 -SN FEW050 BKN070 M03/M04 Q1020
cycle: 4

Station Type Date Time Source
LOWG TAF 2018/12/14 18:21 UTC NOAA

TAF TAF LOWG 141715Z 1418/1518 03004KT 6000 -SN SCT010 BKN030 TX01/1513Z TNM03/1507Z
TEMPO 1418/1502 3500 BR SCT005 BKN008 PROB30
TEMPO 1418/1422 1400 SN
BECMG 1501/1503 9999 NSW FEW020 BKN070
TEMPO 1509/1515 35008KT


Example: see airport list